createdAt,value
2022-08-25T00:00:44.774Z,33.75
2022-08-25T00:03:47.601Z,33.45
2022-08-25T00:06:51.065Z,32.67
2022-08-25T00:09:53.092Z,32.45
2022-08-25T00:12:55.129Z,34.88
2022-08-25T00:15:57.946Z,33.28
2022-08-25T00:19:04.276Z,33.73
2022-08-25T00:22:07.839Z,34.17
2022-08-25T00:25:09.888Z,34.63
2022-08-25T00:28:12.033Z,34.13
2022-08-25T00:31:20.156Z,37.15
2022-08-25T00:34:27.074Z,37.00
2022-08-25T00:37:29.273Z,37.38
2022-08-25T00:40:31.359Z,37.28
2022-08-25T00:43:45.696Z,36.65
2022-08-25T00:46:53.697Z,37.72
2022-08-25T00:49:59.587Z,38.53
2022-08-25T00:53:04.440Z,38.60
2022-08-25T00:56:06.976Z,38.25
2022-08-25T00:59:09.145Z,39.08
2022-08-25T01:02:13.778Z,39.35
2022-08-25T01:05:16.455Z,39.28
2022-08-25T01:08:21.378Z,39.92
2022-08-25T01:11:23.428Z,41.28
2022-08-25T01:14:27.545Z,42.15
2022-08-25T01:17:44.948Z,41.17
2022-08-25T01:20:52.087Z,43.17
2022-08-25T01:23:56.419Z,42.05
2022-08-25T01:26:58.524Z,39.67
2022-08-25T01:30:00.543Z,40.08
2022-08-25T01:33:08.732Z,37.75
2022-08-25T01:36:10.740Z,37.85
2022-08-25T01:39:14.218Z,35.92
2022-08-25T01:42:32.737Z,37.83
2022-08-25T01:45:35.459Z,35.97
2022-08-25T01:48:37.504Z,38.45
2022-08-25T01:51:48.142Z,39.35
2022-08-25T01:54:50.284Z,37.67
2022-08-25T01:57:52.777Z,36.47
2022-08-25T02:00:57.749Z,35.35
2022-08-25T02:04:00.156Z,35.97
2022-08-25T02:07:04.319Z,37.35
2022-08-25T02:10:06.939Z,37.88
2022-08-25T02:13:09.045Z,35.28
2022-08-25T02:16:19.439Z,36.78
2022-08-25T02:19:24.580Z,37.85
2022-08-25T02:22:26.615Z,35.88
2022-08-25T02:25:28.665Z,35.10
2022-08-25T02:28:30.689Z,36.05
2022-08-25T02:31:33.549Z,36.17
2022-08-25T02:34:35.575Z,37.20
2022-08-25T02:37:37.686Z,35.38
2022-08-25T02:40:39.749Z,33.72
2022-08-25T02:43:43.244Z,33.95
2022-08-25T02:46:45.280Z,32.90
2022-08-25T02:49:47.293Z,31.05
2022-08-25T02:52:49.357Z,31.00
2022-08-25T02:55:51.388Z,29.38
2022-08-25T02:58:53.932Z,29.02
2022-08-25T03:01:56.113Z,28.73
2022-08-25T03:04:58.219Z,28.23
2022-08-25T03:08:00.327Z,26.92
2022-08-25T03:11:03.739Z,26.13
2022-08-25T03:14:07.784Z,26.30
2022-08-25T03:17:09.909Z,25.60
2022-08-25T03:20:12.778Z,26.05
2022-08-25T03:23:14.795Z,26.10
2022-08-25T03:26:17.065Z,25.25
2022-08-25T03:29:30.532Z,26.00
2022-08-25T03:32:32.540Z,26.30
2022-08-25T03:35:34.653Z,25.50
2022-08-25T03:38:36.674Z,25.70
2022-08-25T03:41:39.397Z,23.67
2022-08-25T03:44:41.446Z,22.13
2022-08-25T03:47:46.810Z,22.45
2022-08-25T03:50:51.668Z,21.83
2022-08-25T03:53:55.527Z,20.55
2022-08-25T03:56:57.638Z,19.20
2022-08-25T03:59:59.926Z,19.25
2022-08-25T04:03:01.968Z,17.15
2022-08-25T04:06:05.604Z,16.70
2022-08-25T04:09:08.083Z,16.15
2022-08-25T04:12:10.224Z,16.42
2022-08-25T04:15:12.220Z,16.27
2022-08-25T04:18:14.392Z,14.80
2022-08-25T04:21:17.574Z,15.77
2022-08-25T04:24:19.572Z,15.77
2022-08-25T04:27:21.589Z,14.65
2022-08-25T04:30:23.711Z,15.73
2022-08-25T04:33:25.753Z,14.77
2022-08-25T04:36:27.785Z,14.77
2022-08-25T04:39:30.603Z,14.75
2022-08-25T04:42:33.350Z,14.65
2022-08-25T04:45:39.897Z,13.32
2022-08-25T04:48:43.003Z,13.32
2022-08-25T04:51:45.563Z,14.38
2022-08-25T04:54:47.644Z,13.95
2022-08-25T04:57:49.748Z,13.07
2022-08-25T05:00:52.028Z,13.50
2022-08-25T05:04:02.218Z,13.38
2022-08-25T05:07:04.857Z,12.80
2022-08-25T05:10:07.434Z,13.13
2022-08-25T05:13:10.213Z,12.25
2022-08-25T05:16:12.757Z,13.10
2022-08-25T05:19:14.975Z,13.02
2022-08-25T05:22:17.031Z,11.50
2022-08-25T05:25:19.168Z,12.00
2022-08-25T05:28:21.221Z,12.20
2022-08-25T05:31:25.018Z,12.13
2022-08-25T05:34:27.161Z,11.65
2022-08-25T05:37:29.204Z,12.05
2022-08-25T05:40:32.285Z,12.05
2022-08-25T05:43:34.426Z,11.70
2022-08-25T05:46:36.666Z,11.73
2022-08-25T05:49:38.766Z,11.75
2022-08-25T05:52:40.904Z,11.30
2022-08-25T05:55:45.136Z,10.95
2022-08-25T05:58:47.812Z,11.15
2022-08-25T06:01:49.875Z,10.75
2022-08-25T06:04:51.888Z,10.23
2022-08-25T06:07:53.956Z,9.93
2022-08-25T06:10:55.965Z,9.68
2022-08-25T06:13:59.659Z,9.68
2022-08-25T06:17:02.063Z,9.43
2022-08-25T06:20:04.605Z,9.48
2022-08-25T06:23:09.096Z,9.15
2022-08-25T06:26:19.524Z,8.68
2022-08-25T06:29:23.751Z,8.90
2022-08-25T06:32:25.837Z,9.10
2022-08-25T06:35:27.857Z,9.13
2022-08-25T06:38:29.980Z,10.13
2022-08-25T06:41:37.061Z,9.13
2022-08-25T06:44:39.201Z,9.55
2022-08-25T06:47:41.354Z,9.18
2022-08-25T06:50:43.744Z,9.73
2022-08-25T06:53:47.756Z,9.25
2022-08-25T06:56:50.016Z,9.55
2022-08-25T06:59:53.505Z,8.75
2022-08-25T07:02:56.571Z,7.82
2022-08-25T07:05:58.588Z,9.25
2022-08-25T07:09:01.035Z,8.38
2022-08-25T07:12:03.326Z,8.02
2022-08-25T07:15:21.438Z,8.75
2022-08-25T07:18:23.981Z,7.78
2022-08-25T07:21:32.670Z,7.93
2022-08-25T07:24:35.612Z,8.13
2022-08-25T07:27:38.949Z,7.60
2022-08-25T07:30:43.723Z,6.78
2022-08-25T07:33:45.824Z,6.80
2022-08-25T07:36:47.848Z,7.13
2022-08-25T07:39:50.153Z,6.40
2022-08-25T07:42:54.765Z,6.35
2022-08-25T07:45:56.892Z,5.82
2022-08-25T07:48:58.926Z,5.95
2022-08-25T07:52:04.159Z,4.82
2022-08-25T07:55:08.499Z,5.47
2022-08-25T07:58:13.249Z,4.95
2022-08-25T08:01:22.139Z,5.50
2022-08-25T08:04:24.416Z,5.10
2022-08-25T08:07:42.162Z,5.40
2022-08-25T08:11:03.320Z,5.70
2022-08-25T08:14:07.675Z,4.95
2022-08-25T08:17:10.400Z,5.30
2022-08-25T08:23:16.237Z,5.00
2022-08-25T08:26:19.270Z,5.07
2022-08-25T08:29:21.386Z,4.57
2022-08-25T08:32:35.476Z,4.43
2022-08-25T08:35:46.437Z,4.80
2022-08-25T08:38:49.277Z,4.78
2022-08-25T08:42:11.255Z,5.20
2022-08-25T08:49:00.206Z,5.85
2022-08-25T08:52:04.088Z,5.00
2022-08-25T08:55:23.222Z,4.20
2022-08-25T08:58:49.887Z,4.13
2022-08-25T09:01:55.516Z,4.65
2022-08-25T09:05:01.989Z,5.00
2022-08-25T09:08:09.433Z,4.38
2022-08-25T09:11:46.165Z,4.40
2022-08-25T09:15:14.929Z,4.20
2022-08-25T09:18:16.923Z,4.55
2022-08-25T09:21:24.962Z,4.22
2022-08-25T09:24:51.201Z,3.95
2022-08-25T09:28:07.818Z,3.60
2022-08-25T09:31:27.506Z,3.42
2022-08-25T09:34:33.736Z,3.27
2022-08-25T09:37:35.732Z,3.47
2022-08-25T09:40:40.796Z,3.65
2022-08-25T09:43:54.233Z,3.47
2022-08-25T09:47:02.102Z,3.53
2022-08-25T09:50:05.511Z,3.15
2022-08-25T09:53:17.049Z,3.00
2022-08-25T09:56:22.739Z,3.08
2022-08-25T09:59:34.963Z,3.58
2022-08-25T10:06:13.232Z,2.92
2022-08-25T10:09:33.626Z,3.20
2022-08-25T10:12:43.784Z,3.10
2022-08-25T10:15:46.410Z,3.30
2022-08-25T10:19:18.429Z,3.67
2022-08-25T10:22:22.195Z,3.50
2022-08-25T10:25:30.916Z,3.15
2022-08-25T10:28:37.182Z,3.10
2022-08-25T10:31:52.549Z,3.45
2022-08-25T10:34:57.844Z,3.20
2022-08-25T10:38:23.971Z,3.20
2022-08-25T10:41:57.361Z,3.40
2022-08-25T10:45:22.222Z,3.35
2022-08-25T10:48:24.257Z,3.13
2022-08-25T10:51:38.771Z,2.90
2022-08-25T10:54:49.740Z,3.22
2022-08-25T10:58:07.692Z,3.33
2022-08-25T11:01:44.493Z,2.80
2022-08-25T11:05:24.640Z,2.92
2022-08-25T11:08:44.991Z,2.78
2022-08-25T11:12:05.593Z,2.97
2022-08-25T11:15:12.545Z,2.90
2022-08-25T11:18:15.283Z,2.40
2022-08-25T11:21:27.196Z,2.53
2022-08-25T11:24:38.093Z,2.42
2022-08-25T11:27:55.221Z,2.55
2022-08-25T11:31:01.763Z,2.20
2022-08-25T11:34:03.994Z,2.35
2022-08-25T11:37:19.789Z,2.55
2022-08-25T11:40:30.743Z,2.88
2022-08-25T11:43:51.632Z,2.55
2022-08-25T11:46:59.522Z,2.40
2022-08-25T11:50:05.880Z,2.50
2022-08-25T11:53:30.230Z,2.83
2022-08-25T11:56:40.093Z,2.50
2022-08-25T11:59:51.437Z,2.28
2022-08-25T12:02:54.102Z,2.50
2022-08-25T12:06:21.800Z,2.60
2022-08-25T12:09:23.819Z,2.90
2022-08-25T12:12:41.764Z,2.55
2022-08-25T12:15:44.061Z,2.58
2022-08-25T12:18:46.469Z,2.70
2022-08-25T12:21:48.992Z,2.80
2022-08-25T12:25:04.571Z,2.63
2022-08-25T12:28:40.404Z,2.70
2022-08-25T12:32:04.298Z,2.65
2022-08-25T12:35:32.066Z,2.65
2022-08-25T12:38:47.283Z,2.80
2022-08-25T12:41:58.189Z,2.78
2022-08-25T12:45:12.212Z,2.75
2022-08-25T12:48:26.061Z,2.42
2022-08-25T12:51:33.822Z,2.67
2022-08-25T12:54:35.785Z,2.80
2022-08-25T12:57:42.954Z,2.60
2022-08-25T13:01:24.554Z,2.50
2022-08-25T13:04:52.062Z,2.80
2022-08-25T13:08:33.859Z,2.40
2022-08-25T13:11:51.087Z,2.20
2022-08-25T13:14:56.282Z,2.40
2022-08-25T13:18:19.080Z,2.03
2022-08-25T13:24:40.139Z,2.28
2022-08-25T13:27:47.658Z,2.28
2022-08-25T13:31:04.775Z,2.17
2022-08-25T13:34:19.530Z,2.40
2022-08-25T13:37:24.218Z,2.50
2022-08-25T13:40:29.613Z,2.63
2022-08-25T13:43:31.750Z,2.30
2022-08-25T13:46:35.455Z,2.05
2022-08-25T13:49:39.417Z,2.47
2022-08-25T13:52:41.674Z,2.30
2022-08-25T13:55:50.663Z,2.40
2022-08-25T13:58:57.019Z,2.33
2022-08-25T14:01:59.217Z,2.50
2022-08-25T14:05:01.405Z,3.55
2022-08-25T14:08:16.073Z,3.30
2022-08-25T14:11:43.684Z,3.70
2022-08-25T14:14:57.903Z,3.58
2022-08-25T14:18:28.578Z,3.63
2022-08-25T14:21:33.711Z,4.15
2022-08-25T14:24:40.904Z,3.70
2022-08-25T14:28:03.731Z,4.10
2022-08-25T14:31:10.208Z,4.07
2022-08-25T14:34:20.139Z,3.35
2022-08-25T14:37:25.505Z,3.58
2022-08-25T14:40:32.079Z,4.28
2022-08-25T14:43:36.147Z,4.22
2022-08-25T14:47:05.736Z,4.38
2022-08-25T14:50:10.453Z,4.05
2022-08-25T14:53:13.181Z,4.07
2022-08-25T14:56:15.532Z,3.78
2022-08-25T14:59:17.552Z,4.32
2022-08-25T15:02:22.273Z,4.00
2022-08-25T15:05:31.751Z,3.90
2022-08-25T15:08:33.804Z,3.42
2022-08-25T15:11:38.715Z,4.47
2022-08-25T15:14:43.728Z,3.25
2022-08-25T15:17:47.597Z,3.63
2022-08-25T15:20:51.553Z,3.28
2022-08-25T15:23:56.554Z,3.77
2022-08-25T15:27:00.967Z,5.90
2022-08-25T15:30:04.770Z,5.57
2022-08-25T15:33:06.785Z,5.88
2022-08-25T15:39:19.004Z,7.13
2022-08-25T15:42:21.668Z,8.63
2022-08-25T15:45:23.955Z,11.13
2022-08-25T15:48:26.825Z,11.75
2022-08-25T15:51:29.238Z,10.55
2022-08-25T15:54:31.452Z,13.43
2022-08-25T15:57:34.206Z,16.27
2022-08-25T16:00:40.931Z,17.80
2022-08-25T16:03:44.183Z,21.73
2022-08-25T16:06:46.352Z,22.17
2022-08-25T16:09:50.021Z,23.95
2022-08-25T16:12:53.276Z,25.63
2022-08-25T16:15:55.676Z,29.58
2022-08-25T16:18:58.206Z,29.48
2022-08-25T16:22:00.637Z,30.30
2022-08-25T16:25:02.983Z,31.98
2022-08-25T16:28:12.501Z,31.10
2022-08-25T16:31:16.438Z,30.52
2022-08-25T16:34:18.506Z,32.67
2022-08-25T16:37:20.521Z,34.20
2022-08-25T16:40:25.232Z,34.60
2022-08-25T16:43:28.502Z,32.88
2022-08-25T16:46:31.993Z,34.13
2022-08-25T16:49:34.082Z,34.70
2022-08-25T16:52:36.426Z,32.17
2022-08-25T16:55:38.943Z,36.75
2022-08-25T16:58:41.545Z,35.20
2022-08-25T17:01:47.766Z,36.40
2022-08-25T17:04:51.807Z,35.08
2022-08-25T17:07:53.945Z,37.60
2022-08-25T17:11:16.851Z,38.83
2022-08-25T17:14:19.283Z,36.17
2022-08-25T17:17:21.319Z,36.97
2022-08-25T17:20:29.115Z,35.30
2022-08-25T17:23:31.247Z,37.20
2022-08-25T17:26:33.381Z,36.05
2022-08-25T17:29:35.695Z,36.10
2022-08-25T17:32:38.373Z,35.25
2022-08-25T17:35:42.441Z,33.95
2022-08-25T17:38:44.909Z,32.42
2022-08-25T17:41:47.766Z,32.23
2022-08-25T17:44:49.815Z,30.83
2022-08-25T17:47:51.817Z,31.40
2022-08-25T17:50:55.241Z,31.45
2022-08-25T17:53:57.344Z,30.65
2022-08-25T17:56:59.365Z,29.73
2022-08-25T18:00:01.437Z,29.40
2022-08-25T18:03:10.551Z,30.45
2022-08-25T18:06:15.014Z,30.95
2022-08-25T18:09:18.127Z,30.25
2022-08-25T18:12:20.169Z,29.85
2022-08-25T18:15:23.217Z,31.92
2022-08-25T18:18:25.260Z,33.47
2022-08-25T18:21:30.640Z,35.15
2022-08-25T18:24:33.805Z,33.00
2022-08-25T18:27:37.536Z,31.77
2022-08-25T18:30:39.793Z,29.83
2022-08-25T18:33:41.943Z,23.75
2022-08-25T18:36:43.969Z,22.05
2022-08-25T18:39:47.165Z,19.92
2022-08-25T18:42:53.945Z,18.70
2022-08-25T18:45:57.112Z,15.85
2022-08-25T18:48:59.658Z,14.68
2022-08-25T18:52:01.681Z,14.98
2022-08-25T18:55:04.392Z,14.40
2022-08-25T18:58:07.659Z,15.38
2022-08-25T19:01:15.807Z,14.00
2022-08-25T19:04:17.987Z,13.93
2022-08-25T19:07:20.068Z,13.93
2022-08-25T19:10:24.008Z,14.05
2022-08-25T19:13:26.931Z,15.35
2022-08-25T19:16:40.290Z,14.70
2022-08-25T19:19:42.680Z,14.30
2022-08-25T19:22:46.005Z,15.98
2022-08-25T19:25:48.240Z,17.08
2022-08-25T19:28:50.970Z,16.88
2022-08-25T19:31:53.065Z,18.38
2022-08-25T19:34:55.790Z,17.88
2022-08-25T19:37:59.993Z,20.23
2022-08-25T19:41:02.716Z,20.05
2022-08-25T19:44:12.982Z,19.70
2022-08-25T19:47:16.124Z,19.00
2022-08-25T19:50:23.722Z,19.77
2022-08-25T19:53:25.757Z,19.70
2022-08-25T19:56:27.840Z,17.15
2022-08-25T19:59:40.803Z,16.02
2022-08-25T20:02:45.104Z,15.02
2022-08-25T20:05:48.561Z,14.57
2022-08-25T20:08:58.955Z,14.07
2022-08-25T20:12:03.505Z,14.38
2022-08-25T20:15:09.342Z,13.30
2022-08-25T20:18:11.354Z,12.80
2022-08-25T20:21:13.373Z,12.63
2022-08-25T20:24:15.511Z,12.02
2022-08-25T20:27:18.545Z,10.32
2022-08-25T20:30:23.565Z,9.73
2022-08-25T20:33:25.619Z,8.73
2022-08-25T20:36:27.658Z,6.00
2022-08-25T20:39:29.793Z,5.97
2022-08-25T20:42:32.022Z,3.63
2022-08-25T20:45:34.105Z,4.47
2022-08-25T20:48:36.137Z,2.92
2022-08-25T20:51:38.153Z,2.88
2022-08-25T20:54:40.356Z,3.25
2022-08-25T20:57:42.766Z,2.70
2022-08-25T21:00:45.745Z,2.72
2022-08-25T21:03:48.555Z,2.72
2022-08-25T21:06:51.291Z,2.72
2022-08-25T21:09:53.322Z,2.67
2022-08-25T21:12:55.325Z,2.70
2022-08-25T21:15:57.319Z,2.47
2022-08-25T21:18:59.357Z,2.30
2022-08-25T21:22:01.420Z,2.30
2022-08-25T21:25:04.178Z,2.58
2022-08-25T21:28:06.296Z,2.55
2022-08-25T21:31:09.560Z,2.53
2022-08-25T21:34:12.253Z,2.80
2022-08-25T21:37:14.272Z,2.70
2022-08-25T21:40:16.515Z,2.85
2022-08-25T21:43:18.710Z,2.70
2022-08-25T21:46:23.597Z,2.28
2022-08-25T21:49:25.642Z,3.00
2022-08-25T21:52:27.809Z,2.80
2022-08-25T21:55:37.282Z,2.45
2022-08-25T21:58:49.020Z,2.60
2022-08-25T22:01:55.616Z,2.80
2022-08-25T22:04:58.160Z,2.33
2022-08-25T22:08:01.132Z,2.80
2022-08-25T22:11:06.347Z,2.65
2022-08-25T22:14:09.597Z,2.42
2022-08-25T22:17:16.663Z,2.70
2022-08-25T22:20:19.281Z,2.70
2022-08-25T22:23:21.373Z,2.55
2022-08-25T22:26:24.908Z,2.20
2022-08-25T22:29:30.529Z,2.60
2022-08-25T22:32:32.649Z,2.70
2022-08-25T22:35:35.402Z,2.25
2022-08-25T22:38:37.389Z,2.13
2022-08-25T22:41:41.781Z,2.47
2022-08-25T22:44:44.923Z,2.65
2022-08-25T22:47:47.202Z,2.45
2022-08-25T22:50:49.222Z,2.15
2022-08-25T22:53:52.113Z,2.22
2022-08-25T22:56:54.686Z,2.42
2022-08-25T22:59:56.708Z,2.35
2022-08-25T23:02:58.753Z,2.97
2022-08-25T23:06:00.768Z,2.20
2022-08-25T23:09:06.375Z,2.22
2022-08-25T23:12:08.538Z,1.98
2022-08-25T23:15:11.930Z,2.30
2022-08-25T23:18:14.537Z,3.13
2022-08-25T23:21:16.554Z,2.90
2022-08-25T23:24:27.490Z,2.67
2022-08-25T23:27:32.217Z,2.42
2022-08-25T23:30:34.242Z,1.92
2022-08-25T23:33:36.264Z,1.90
2022-08-25T23:36:38.322Z,2.35
2022-08-25T23:39:40.341Z,2.13
2022-08-25T23:42:42.400Z,2.03
2022-08-25T23:45:44.470Z,2.75
2022-08-25T23:48:47.349Z,1.80
2022-08-25T23:51:51.815Z,1.95
2022-08-25T23:54:54.924Z,2.17
2022-08-25T23:57:56.916Z,2.28
